Flight Track Log - Related Links

Times and Time Zones

All times are in EDT time to prevent confusion due to time zone crossing. See the AVN20 flight status page for this flight to view local times or setup timezone preferences in your user account.

Time Position Orientation Groundspeed Altitude Reporting Facility
EDT Latitude Longitude Course Direction KTS MPH feet Rate Location/Type
Sun 03:09:00 -16.1753 166.6217 221° Southwest  Level FlightAware Approximate
Sun 03:10:00 -16.2314 166.5715 221° Southwest  Level FlightAware Approximate
Sun 03:11:00 -16.2874 166.5212 221° Southwest  Level FlightAware Approximate
Sun 03:12:00 -16.3435 166.4709 221° Southwest  Level FlightAware Approximate
Sun 03:13:00 -16.3996 166.4206 221° Southwest  Level FlightAware Approximate
Sun 03:14:00 -16.4556 166.3702 221° Southwest  Level FlightAware Approximate
Sun 03:15:00 -16.5116 166.3198 221° Southwest  Level FlightAware Approximate
Sun 03:16:00 -16.5677 166.2694 221° Southwest  Level FlightAware Approximate
Sun 03:17:00 -16.6237 166.2189 221° Southwest  Level FlightAware Approximate
Sun 03:18:00 -16.6797 166.1684 221° Southwest  Level FlightAware Approximate
Sun 03:19:00 -16.7356 166.1179 221° Southwest  Level FlightAware Approximate
Sun 03:20:00 -16.7916 166.0674 221° Southwest  Level FlightAware Approximate
Sun 03:21:00 -16.8476 166.0168 221° Southwest  Level FlightAware Approximate
Sun 03:22:00 -16.9035 165.9662 221° Southwest  Level FlightAware Approximate
Sun 03:23:00 -16.9595 165.9155 221° Southwest  Level FlightAware Approximate
Sun 03:24:00 -17.0154 165.8649 221° Southwest  Level FlightAware Approximate
Sun 03:25:00 -17.0713 165.8141 221° Southwest  Level FlightAware Approximate
Sun 03:26:00 -17.1272 165.7634 221° Southwest  Level FlightAware Approximate
Sun 03:27:00 -17.1831 165.7127 221° Southwest  Level FlightAware Approximate
Sun 03:28:00 -17.2389 165.6619 221° Southwest  Level FlightAware Approximate
Sun 03:29:00 -17.2948 165.6111 221° Southwest  Level FlightAware Approximate
Sun 03:30:00 -17.3507 165.5602 221° Southwest  Level FlightAware Approximate
Sun 03:31:00 -17.4065 165.5093 221° Southwest  Level FlightAware Approximate
Sun 03:32:00 -17.4623 165.4584 221° Southwest  Level FlightAware Approximate
Sun 03:33:00 -17.5181 165.4075 221° Southwest  Level FlightAware Approximate
Sun 03:34:00 -17.5739 165.3565 221° Southwest  Level FlightAware Approximate
Sun 03:35:00 -17.6297 165.3055 221° Southwest  Level FlightAware Approximate
Sun 03:36:00 -17.6854 165.2545 221° Southwest  Level FlightAware Approximate
Sun 03:37:00 -17.7412 165.2034 221° Southwest  Level FlightAware Approximate
Sun 03:38:00 -17.7969 165.1523 221° Southwest  Level FlightAware Approximate
Sun 03:39:00 -17.8527 165.1012 221° Southwest  Level FlightAware Approximate
Sun 03:40:00 -17.9084 165.0500 221° Southwest  Level FlightAware Approximate
Sun 03:41:00 -17.9641 164.9988 221° Southwest  Level FlightAware Approximate
Sun 03:42:00 -18.0198 164.9476 221° Southwest  Level FlightAware Approximate
Sun 03:43:00 -18.0755 164.8963 221° Southwest  Level FlightAware Approximate
Sun 03:44:00 -18.1311 164.8450 221° Southwest  Level FlightAware Approximate
Sun 03:45:00 -18.1868 164.7937 221° Southwest  Level FlightAware Approximate
Sun 03:46:00 -18.2424 164.7423 221° Southwest  Level FlightAware Approximate
Sun 03:47:00 -18.2980 164.6909 221° Southwest  Level FlightAware Approximate
Sun 03:47:09 -19.8036 163.2832 226° Southwest 34,000  Level Aus ATC (Calculated)
Sun 03:49:00 -19.9096 163.1826 222° Southwest  Level FlightAware Approximate
Sun 03:50:00 -19.9669 163.1281 222° Southwest  Level FlightAware Approximate
Sun 03:50:09 -20.0456 163.0533 226° Southwest 34,000  Level Aus ATC (Calculated)
Sun 03:52:00 -20.1515 162.9523 222° Southwest  Level FlightAware Approximate
Sun 03:53:00 -20.2016 162.8902 236° Southwest  Level Estimated
Sun 03:53:01 -20.2721 162.8370 226° Southwest 34,000  Level Aus ATC (Calculated)
Sun 03:53:57 -20.3783 162.7354 226° Southwest 34,000 66 Level Aus ATC (Calculated)
Sun 03:55:00 -20.4315 162.6729 228° Southwest  Level FlightAware Approximate
Sun 03:56:00 -20.4822 162.6134 228° Southwest  Level FlightAware Approximate
Sun 03:57:00 -20.5329 162.5538 228° Southwest  Level FlightAware Approximate
Sun 03:58:00 -20.5836 162.4941 228° Southwest  Level FlightAware Approximate
Sun 03:59:00 -20.6342 162.4345 228° Southwest  Level FlightAware Approximate
Sun 04:00:00 -20.6848 162.3747 228° Southwest  Level FlightAware Approximate
Sun 04:01:00 -20.7354 162.3150 228° Southwest  Level FlightAware Approximate
Sun 04:02:00 -20.7860 162.2552 228° Southwest  Level FlightAware Approximate
Sun 04:03:00 -20.8366 162.1953 228° Southwest  Level FlightAware Approximate
Sun 04:04:00 -20.8871 162.1355 228° Southwest  Level FlightAware Approximate
Sun 04:05:00 -20.9376 162.0755 228° Southwest  Level FlightAware Approximate
Sun 04:06:00 -20.9881 162.0156 228° Southwest  Level FlightAware Approximate
Sun 04:06:58 -21.5052 161.6442 228° Southwest 34,000  Level Aus ATC (Calculated)
Sun 04:07:00 -21.0386 161.9556 228° Southwest  Level FlightAware Approximate
Sun 04:07:38 -21.5722 161.5786 228° Southwest 34,000  Level Aus ATC (Calculated)
Sun 04:09:00 -21.6451 161.4867 230° Southwest  Level FlightAware Approximate
Sun 04:10:00 -21.6983 161.4194 230° Southwest  Level FlightAware Approximate
Sun 04:11:00 -21.7516 161.3520 230° Southwest  Level FlightAware Approximate
Sun 04:12:00 -21.8048 161.2846 230° Southwest  Level FlightAware Approximate
Sun 04:13:00 -21.8580 161.2171 230° Southwest  Level FlightAware Approximate
Sun 04:14:00 -21.9111 161.1496 230° Southwest  Level FlightAware Approximate
Sun 04:14:32 -22.1553 161.0039 230° Southwest 34,000  Level Aus ATC (Calculated)
Sun 04:15:00 -21.9642 161.0821 230° Southwest  Level FlightAware Approximate
Sun 04:16:00 -22.2315 160.9031 231° Southwest  Level FlightAware Approximate
Sun 04:17:00 -22.2835 160.8343 231° Southwest  Level FlightAware Approximate
Sun 04:18:00 -22.3354 160.7655 231° Southwest  Level FlightAware Approximate
Sun 04:19:00 -22.3873 160.6966 231° Southwest  Level FlightAware Approximate
Sun 04:20:00 -22.4391 160.6276 231° Southwest  Level FlightAware Approximate
Sun 04:21:00 -22.4909 160.5586 231° Southwest  Level FlightAware Approximate
Sun 04:22:00 -22.5427 160.4896 231° Southwest  Level FlightAware Approximate
Sun 04:23:00 -22.5945 160.4205 231° Southwest  Level FlightAware Approximate
Sun 04:24:00 -22.6462 160.3514 231° Southwest  Level FlightAware Approximate
Sun 04:25:00 -22.6979 160.2822 231° Southwest  Level FlightAware Approximate
Sun 04:26:00 -22.7496 160.2129 231° Southwest  Level FlightAware Approximate
Sun 04:27:00 -22.8013 160.1436 231° Southwest  Level FlightAware Approximate
Sun 04:28:00 -22.8529 160.0743 231° Southwest  Level FlightAware Approximate
Sun 04:29:00 -22.9045 160.0049 231° Southwest  Level FlightAware Approximate
Sun 04:30:00 -22.9560 159.9354 231° Southwest  Level FlightAware Approximate
Sun 04:31:00 -23.0075 159.8659 231° Southwest  Level FlightAware Approximate
Sun 04:32:00 -23.0590 159.7963 231° Southwest  Level FlightAware Approximate
Sun 04:32:00 -23.6357 159.5134 236° Southwest 34,000  Level Aus ATC (Calculated)
Sun 04:33:00 -23.6820 159.4393 236° Southwest  Level FlightAware Approximate
Sun 04:34:00 -23.7283 159.3651 236° Southwest  Level FlightAware Approximate
Sun 04:34:39 -23.8011 159.2481 236° Southwest 34,000  Level Aus ATC (Calculated)
Sun 04:35:00 -23.7745 159.2909 236° Southwest  Level FlightAware Approximate
Sun 04:36:00 -23.8634 159.1478 236° Southwest  Level FlightAware Approximate
Sun 04:37:00 -23.9095 159.0735 236° Southwest  Level FlightAware Approximate
Sun 04:38:00 -23.9556 158.9991 236° Southwest  Level FlightAware Approximate
Sun 04:39:00 -24.0017 158.9246 236° Southwest  Level FlightAware Approximate
Sun 04:40:00 -24.0477 158.8501 224° Southwest  Level Estimated
Sun 04:40:14 -24.1961 158.6089 236° Southwest 34,000  Level Aus ATC (Calculated)
Sun 04:42:00 -24.2895 158.4870 230° Southwest  Level FlightAware Approximate
Sun 04:43:00 -24.3423 158.4179 230° Southwest  Level FlightAware Approximate
Sun 04:44:00 -24.3950 158.3488 230° Southwest  Level FlightAware Approximate
Sun 04:45:00 -24.4478 158.2796 230° Southwest  Level FlightAware Approximate
Sun 04:46:00 -24.5005 158.2103 230° Southwest  Level FlightAware Approximate
Sun 04:47:00 -24.5531 158.1410 230° Southwest  Level FlightAware Approximate
Sun 04:48:00 -24.6058 158.0716 230° Southwest  Level FlightAware Approximate
Sun 04:49:00 -24.6584 158.0022 230° Southwest  Level FlightAware Approximate
Sun 04:50:00 -24.7109 157.9327 230° Southwest  Level FlightAware Approximate
Sun 04:51:00 -24.7635 157.8631 230° Southwest  Level FlightAware Approximate
Sun 04:52:00 -24.8160 157.7935 230° Southwest  Level FlightAware Approximate
Sun 04:52:18 -25.0103 157.2645 273° West 34,000  Level Aus ATC (Calculated)
Sun 04:53:33 -25.0100 157.2560 230° Southwest 400 460 38,000 2,000 Climbing Aus ATC (RADAR)
Sun 04:54:18 -25.0590 157.1798 235° Southwest 400 460 38,000  Level Aus ATC (RADAR)
Sun 04:54:53 -25.0960 157.1187 236° Southwest 403 464 38,000  Level Aus ATC (RADAR)
Sun 04:55:28 -25.1339 157.0580 235° Southwest 404 465 38,000  Level Aus ATC (RADAR)
Sun 04:56:03 -25.1696 156.9958 238° Southwest 404 465 38,000  Level Aus ATC (RADAR)
Sun 04:56:38 -25.2054 156.9338 237° Southwest 405 466 38,000  Level Aus ATC (RADAR)
Sun 04:57:13 -25.2406 156.8711 238° Southwest 405 466 38,000  Level Aus ATC (RADAR)
Sun 04:57:47 -25.2804 156.8121 233° Southwest 404 465 38,000  Level Aus ATC (RADAR)
Sun 04:58:23 -25.3176 156.7511 236° Southwest 404 465 38,000  Level Aus ATC (RADAR)
Sun 04:58:58 -25.3539 156.6890 237° Southwest 405 466 38,000  Level Aus ATC (RADAR)
Sun 04:59:48 -25.4046 156.6001 238° Southwest 404 465 38,000  Level Aus ATC (RADAR)
Sun 05:00:12 -25.4310 156.5563 236° Southwest 404 465 38,000  Level Aus ATC (RADAR)
Sun 05:00:42 -25.4630 156.5050 235° Southwest 403 464 38,000  Level Aus ATC (RADAR)
Sun 05:01:27 -25.5087 156.4258 237° Southwest 401 461 38,000 75 Level Aus ATC (RADAR)
Sun 05:02:02 -25.5441 156.3644 237° Southwest 401 461 38,100 86 Climbing Aus ATC (RADAR)
Sun 05:02:37 -25.5788 156.3023 238° Southwest 399 459 38,100  Level Aus ATC (RADAR)
Sun 05:03:12 -25.6154 156.2422 236° Southwest 399 459 38,100  Level Aus ATC (RADAR)
Sun 05:03:47 -25.6497 156.1802 238° Southwest 399 459 38,100 -120 Level Aus ATC (RADAR)
Sun 05:04:02 -25.6650 156.1550 236° Southwest 405 466 38,000  Descending FlightAware ADS-B
Sun 05:04:32 -25.6957 156.1031 236° Southwest 398 458 38,100  Climbing Aus ATC (RADAR)
Sun 05:04:43 -25.7010 156.0940 237° Southwest 405 466 38,000 -125 Descending FlightAware ADS-B
Sun 05:05:20 -25.7330 156.0390 237° Southwest 405 466 38,000  Level FlightAware ADS-B
Sun 05:05:42 -25.7830 155.9940 219° Southwest 407 468 38,000 105 Level FlightAware ADS-B
Sun 05:06:17 -25.8290 155.9423 219° Southwest 403 464 38,100  Climbing Aus ATC (RADAR)
Sun 05:06:17 -25.8270 155.9460 219° Southwest 407 468 38,000  Descending FlightAware ADS-B
Sun 05:06:52 -25.8776 155.8928 219° Southwest 405 466 38,100  Climbing Aus ATC (RADAR)
Sun 05:07:12 -25.8950 155.8730 219° Southwest 407 468 38,000 -113 Descending FlightAware ADS-B
Sun 05:07:45 -25.9470 155.8150 225° Southwest 406 467 38,000  Level FlightAware ADS-B
Sun 05:08:20 -25.9940 155.7640 224° Southwest 406 467 38,000  Level FlightAware ADS-B
Sun 05:09:00 -26.0480 155.7050 224° Southwest 405 466 38,000  Level FlightAware ADS-B
Sun 05:09:30 -26.0830 155.6670 224° Southwest 404 465 38,000 98 Level FlightAware ADS-B
Sun 05:10:01 -26.1307 155.6153 224° Southwest 399 459 38,100  Climbing Aus ATC (RADAR)
Sun 05:10:05 -26.1330 155.6110 224° Southwest 402 463 38,000 -154 Descending FlightAware ADS-B
Sun 05:10:40 -26.1810 155.5590 224° Southwest 401 461 38,000  Level FlightAware ADS-B
Sun 05:11:26 -26.2360 155.4980 225° Southwest 400 460 38,000  Level FlightAware ADS-B
Sun 05:12:06 -26.2920 155.4370 224° Southwest 399 459 38,000  Level FlightAware ADS-B
Sun 05:12:40 -26.3390 155.3850 225° Southwest 398 458 38,000  Level FlightAware ADS-B
Sun 05:13:15 -26.3820 155.3370 225° Southwest 398 458 38,000  Level FlightAware ADS-B
Sun 05:13:50 -26.4290 155.2850 225° Southwest 398 458 38,000  Level FlightAware ADS-B
Sun 05:14:25 -26.4770 155.2330 224° Southwest 398 458 38,000 91 Level FlightAware ADS-B
Sun 05:14:56 -26.5165 155.1875 224° Southwest 395 455 38,100  Climbing Aus ATC (RADAR)
Sun 05:15:00 -26.5210 155.1840 224° Southwest 399 459 38,000 -154 Descending FlightAware ADS-B
Sun 05:15:35 -26.5670 155.1320 225° Southwest 400 460 38,000  Level FlightAware ADS-B
Sun 05:16:10 -26.6120 155.0820 225° Southwest 401 461 38,000 91 Level FlightAware ADS-B
Sun 05:16:41 -26.6546 155.0349 225° Southwest 399 459 38,100  Climbing Aus ATC (RADAR)
Sun 05:16:45 -26.6590 155.0290 225° Southwest 398 458 38,000 -176 Descending FlightAware ADS-B
Sun 05:17:15 -26.6989 154.9838 225° Southwest 390 449 38,000  Level Aus ATC (RADAR)
Sun 05:17:20 -26.7050 154.9780 225° Southwest 390 449 38,000  Level FlightAware ADS-B
Sun 05:17:51 -26.7436 154.9346 225° Southwest 385 443 38,000  Level Aus ATC (RADAR)
Sun 05:17:55 -26.7490 154.9290 225° Southwest 386 444 38,000  Level FlightAware ADS-B
Sun 05:18:26 -26.7879 154.8852 225° Southwest 384 442 38,000  Level Aus ATC (RADAR)
Sun 05:18:30 -26.7910 154.8820 225° Southwest 386 444 38,000 -171 Level FlightAware ADS-B
Sun 05:19:01 -26.8319 154.8363 225° Southwest 381 438 37,900 -486 Descending Aus ATC (RADAR)
Sun 05:19:07 -26.8370 154.8310 225° Southwest 376 433 37,700 -2,462 Descending FlightAware ADS-B
Sun 05:19:40 -26.8800 154.7820 225° Southwest 372 428 36,300 -2,735 Descending FlightAware ADS-B
Sun 05:20:15 -26.9230 154.7340 225° Southwest 376 433 34,600 -2,914 Descending FlightAware ADS-B
Sun 05:20:50 -26.9667 154.6857 225° Southwest 378 435 32,900 -2,914 Descending Aus ATC (RADAR)
Sun 05:20:50 -26.9640 154.6890 225° Southwest 379 436 32,900 -2,057 Level FlightAware ADS-B
Sun 05:21:25 -27.0098 154.6373 225° Southwest 378 435 31,700 -2,229 Descending Aus ATC (RADAR)
Sun 05:21:25 -27.0090 154.6380 225° Southwest 381 438 31,600 -2,229 Descending FlightAware ADS-B
Sun 05:22:00 -27.0530 154.5880 225° Southwest 389 448 30,400 -2,143 Descending FlightAware ADS-B
Sun 05:22:35 -27.0950 154.5400 225° Southwest 385 443 29,100 -2,229 Descending FlightAware ADS-B
Sun 05:23:10 -27.1420 154.4880 225° Southwest 374 430 27,800 -2,143 Descending FlightAware ADS-B
Sun 05:23:45 -27.1830 154.4410 226° Southwest 364 419 26,600 -2,057 Descending FlightAware ADS-B
Sun 05:24:20 -27.2240 154.3960 224° Southwest 353 406 25,400 -2,057 Descending FlightAware ADS-B
Sun 05:24:55 -27.2640 154.3510 225° Southwest 345 397 24,200 -1,971 Descending FlightAware ADS-B
Sun 05:25:30 -27.3010 154.3080 226° Southwest 337 388 23,100 -1,886 Descending FlightAware ADS-B
Sun 05:26:05 -27.3400 154.2640 225° Southwest 338 389 22,000 -1,971 Descending FlightAware ADS-B
Sun 05:26:40 -27.3810 154.2180 225° Southwest 347 399 20,800 -1,971 Descending FlightAware ADS-B
Sun 05:27:15 -27.4180 154.1750 226° Southwest 340 391 19,700 -1,886 Descending FlightAware ADS-B
Sun 05:27:50 -27.4580 154.1300 225° Southwest 333 383 18,600 -1,971 Descending FlightAware ADS-B
Sun 05:28:25 -27.4960 154.0870 225° Southwest 337 388 17,400 -1,920 Descending FlightAware ADS-B
Sun 05:28:40 -27.5070 154.0690 235° Southwest 332 382 17,000 -1,920 Descending FlightAware ADS-B
Sun 05:28:50 -27.5130 154.0480 252° West 332 382 16,600 -2,100 Descending FlightAware ADS-B
Sun 05:29:00 -27.5140 154.0320 266° West 334 384 16,300 -1,867 Descending FlightAware ADS-B
Sun 05:29:35 -27.5050 153.9710 279° West 331 381 15,200 -1,846 Descending FlightAware ADS-B
Sun 05:30:05 -27.4970 153.9210 280° West 327 376 14,300 -1,846 Descending FlightAware ADS-B
Sun 05:30:40 -27.4880 153.8640 280° West 322 371 13,200 -1,886 Descending FlightAware ADS-B
Sun 05:31:15 -27.4780 153.8040 281° West 322 371 12,100 -1,412 Descending FlightAware ADS-B
Sun 05:32:05 -27.4780 153.7230 270° West 313 360 11,200 -988 Descending FlightAware ADS-B
Sun 05:32:40 -27.4900 153.6670 256° West 312 359 10,700 -818 Descending FlightAware ADS-B
Sun 05:33:11 -27.4990 153.6220 257° West 313 360 10,300 -700 Descending FlightAware ADS-B
Sun 05:33:40 -27.5080 153.5760 258° West 313 360 10,000 -735 Descending FlightAware ADS-B
Sun 05:34:00 -27.5150 153.5440 256° West 315 362 9,700 -933 Descending FlightAware ADS-B
Sun 05:34:25 -27.5230 153.5010 258° West 307 353 9,300 -800 Descending FlightAware ADS-B
Sun 05:34:45 -27.5280 153.4760 257° West 304 350 9,100 -750 Descending FlightAware ADS-B
Sun 05:35:05 -27.5360 153.4400 256° West 299 344 8,800 -900 Descending FlightAware ADS-B
Sun 05:35:25 -27.5420 153.4090 258° West 299 344 8,500 -1,200 Descending FlightAware ADS-B
Sun 05:35:50 -27.5490 153.3730 258° West 294 338 7,900 -1,600 Descending FlightAware ADS-B
Sun 05:36:10 -27.5550 153.3430 257° West 289 333 7,300 -1,650 Descending FlightAware ADS-B
Sun 05:36:30 -27.5610 153.3120 258° West 286 329 6,800 -1,650 Descending FlightAware ADS-B
Sun 05:36:50 -27.5670 153.2830 257° West 283 326 6,200 -1,333 Descending FlightAware ADS-B
Sun 05:37:15 -27.5740 153.2480 257° West 273 314 5,800 -800 Descending FlightAware ADS-B
Sun 05:37:35 -27.5790 153.2210 258° West 259 298 5,600 -450 Descending FlightAware ADS-B
Sun 05:37:55 -27.5840 153.1990 256° West 247 284 5,500 -450 Descending FlightAware ADS-B
Sun 05:38:15 -27.5890 153.1700 259° West 242 278 5,300 -600 Descending FlightAware ADS-B
Sun 05:38:35 -27.5940 153.1460 257° West 230 265 5,100 -533 Descending FlightAware ADS-B
Sun 05:39:00 -27.5990 153.1190 258° West 216 249 4,900 -400 Descending FlightAware ADS-B
Sun 05:39:20 -27.5950 153.0960 281° West 212 244 4,800 -600 Descending FlightAware ADS-B
Sun 05:39:40 -27.5890 153.0760 289° West 204 235 4,500 -1,050 Descending FlightAware ADS-B
Sun 05:40:00 -27.5840 153.0550 285° West 202 232 4,100 -1,200 Descending FlightAware ADS-B
Sun 05:40:15 -27.5790 153.0410 292° West 200 230 3,800 -1,200 Descending FlightAware ADS-B
Sun 05:40:20 -27.5750 153.0370 318° Northwest 200 230 3,700 -600 Descending FlightAware ADS-B
Sun 05:40:25 -27.5710 153.0340 326° Northwest 198 228 3,700 -800 Level FlightAware ADS-B
Sun 05:40:35 -27.5630 153.0320 348° North 196 226 3,500 -1,400 Descending FlightAware ADS-B
Sun 05:40:55 -27.5450 153.0360 11° North 198 228 3,000 -1,200 Descending FlightAware ADS-B
Sun 05:41:20 -27.5250 153.0480 28° Northeast 180 207 2,600 -933 Descending FlightAware ADS-B
Sun 05:41:40 -27.5130 153.0550 27° Northeast 163 188 2,300 -750 Descending FlightAware ADS-B
Sun 05:42:00 -27.4980 153.0630 25° Northeast 148 170 2,100 -686 Descending FlightAware ADS-B
Sun 05:42:15 -27.4900 153.0680 29° Northeast 138 159 1,900 -857 Descending FlightAware ADS-B
Sun 05:42:35 -27.4780 153.0750 27° Northeast 137 158 1,600 -800 Descending FlightAware ADS-B
Sun 05:42:45 -27.4730 153.0780 28° Northeast 136 157 1,500 -750 Descending FlightAware ADS-B
Sun 05:43:15 -27.4560 153.0880 28° Northeast 139 160 1,100 -720 Descending FlightAware ADS-B
Sun 05:43:35 -27.4440 153.0950 27° Northeast 140 161 900 -667 Descending FlightAware ADS-B
Sun 05:44:00 -27.4300 153.1030 27° Northeast 139 160 600 -800 Descending FlightAware ADS-B
Sun 05:44:20 -27.4190 153.1090 26° Northeast 140 161 300 -750 Descending FlightAware ADS-B
Sun 05:44:40 -27.4060 153.1160 26° Northeast 141 162 100 -600 Descending FlightAware ADS-B
Sun 05:45:00 -27.3950 153.1230 29° Northeast 120 138 -300 Descending FlightAware ADS-B

Login

Don't have an account? Register now (free) for customized features, flight alerts, and more!